Overview Statistics Trail Chart Weather Telemetry Raw packets
 

This is the latest recevied weather packets stored in our database for station/object YO8RBY-2. If no packets are shown the sender has not sent any weather packets the latest 10 day(s).

<< 1 2 3 4 >>
Time Temp. Humidity Pressure Rain* Wind** Luminosity Snow
1788623966 22.78° C 47% 972 hPa - - 0 W/m² -
1788622142 23.89° C 45% 972 hPa - - 0 W/m² -
1788620318 26.67° C 40% 972 hPa - - 0 W/m² -
1788618494 32.78° C 30% 971 hPa - - 0 W/m² -
1788616670 33.33° C 30% 971 hPa - - 0 W/m² -
1788614846 35° C 27% 971 hPa - - 0 W/m² -
1788613021 36.11° C 21% 970 hPa - - 0 W/m² -
1788611197 36.11° C 21% 970 hPa - - 0 W/m² -
1788609373 35.56° C 21% 970 hPa - - 0 W/m² -
1788607549 38.33° C 20% 970 hPa - - 0 W/m² -
1788602075 35° C 24% 971 hPa - - 0 W/m² -
1788600251 33.33° C 26% 971 hPa - - 0 W/m² -
1788596602 30.56° C 28% 972 hPa - - 0 W/m² -
1788594777 31.11° C 30% 972 hPa - - 0 W/m² -
1788592926 30.56° C 29% 972 hPa - - 0 W/m² -
1788591102 30.56° C 29% 972 hPa - - 0 W/m² -
1788589277 28.89° C 32% 972 hPa - - 0 W/m² -
1788587455 26.11° C 36% 972 hPa - - 0 W/m² -
1788585629 26.11° C 35% 973 hPa - - 0 W/m² -
1788583805 25° C 38% 973 hPa - - 0 W/m² -
1788581981 23.89° C 40% 972 hPa - - 0 W/m² -
1788580156 23.89° C 39% 972 hPa - - 0 W/m² -
1788576508 22.78° C 43% 972 hPa - - 0 W/m² -
1788574684 21.67° C 44% 972 hPa - - 0 W/m² -
1788572860 21.11° C 47% 972 hPa - - 0 W/m² -

* Rain since midnight (hover to see other rain measurements)
** Current wind speed in m/s (hover to see current wind gust speed)